createdAt,value
2023-05-06T00:01:22.513Z,100284.95
2023-05-06T00:03:50.925Z,100286.14
2023-05-06T00:06:19.069Z,100284.69
2023-05-06T00:08:46.966Z,100289.59
2023-05-06T00:11:14.842Z,100288.42
2023-05-06T00:13:42.661Z,100289.31
2023-05-06T00:16:10.776Z,100292.83
2023-05-06T00:18:38.597Z,100293.48
2023-05-06T00:21:06.593Z,100294.46
2023-05-06T00:23:34.677Z,100298.73
2023-05-06T00:26:02.508Z,100298.38
2023-05-06T00:28:30.349Z,100299.73
2023-05-06T00:30:58.193Z,100297.76
2023-05-06T00:33:26.580Z,100303.68
2023-05-06T00:35:54.499Z,100306.45
2023-05-06T00:38:22.585Z,100301.27
2023-05-06T00:40:51.017Z,100301.11
2023-05-06T00:43:18.885Z,100295.88
2023-05-06T00:45:48.109Z,100294.95
2023-05-06T00:48:16.766Z,100295.09
2023-05-06T00:50:45.448Z,100295.62
2023-05-06T00:53:13.315Z,100296.77
2023-05-06T00:55:41.290Z,100298.52
2023-05-06T00:58:09.985Z,100297.77
2023-05-06T01:00:37.930Z,100298.79
2023-05-06T01:03:05.948Z,100300.48
2023-05-06T01:05:47.670Z,100298.09
2023-05-06T01:08:44.120Z,100300.36
2023-05-06T01:11:28.005Z,100296.17
2023-05-06T01:14:24.340Z,100298.27
2023-05-06T01:16:55.376Z,100300.68
2023-05-06T01:19:39.060Z,100301.27
2023-05-06T01:22:07.508Z,100301.30
2023-05-06T01:24:37.781Z,100301.31
2023-05-06T01:27:06.353Z,100300.88
2023-05-06T01:29:37.216Z,100302.01
2023-05-06T01:32:18.246Z,100302.41
2023-05-06T01:34:56.666Z,100302.17
2023-05-06T01:37:38.925Z,100303.91
2023-05-06T01:40:08.710Z,100308.87
2023-05-06T01:42:40.181Z,100304.94
2023-05-06T01:45:10.088Z,100304.29
2023-05-06T01:47:40.590Z,100304.17
2023-05-06T01:50:08.945Z,100302.59
2023-05-06T01:52:36.865Z,100298.65
2023-05-06T01:55:05.475Z,100300.86
2023-05-06T01:57:33.337Z,100300.86
2023-05-06T02:00:01.374Z,100301.11
2023-05-06T02:02:29.462Z,100303.45
2023-05-06T02:04:57.374Z,100307.44
2023-05-06T02:07:25.355Z,100307.50
2023-05-06T02:09:53.116Z,100312.19
2023-05-06T02:12:21.306Z,100316.04
2023-05-06T02:14:49.308Z,100317.90
2023-05-06T02:17:17.149Z,100319.20
2023-05-06T02:19:45.054Z,100321.38
2023-05-06T02:22:13.027Z,100321.61
2023-05-06T02:24:41.003Z,100320.61
2023-05-06T02:27:08.857Z,100317.98
2023-05-06T02:29:36.735Z,100317.79
2023-05-06T02:32:04.766Z,100317.31
2023-05-06T02:34:32.521Z,100314.48
2023-05-06T02:37:00.382Z,100310.45
2023-05-06T02:39:28.145Z,100307.52
2023-05-06T02:41:55.998Z,100306.39
2023-05-06T02:44:24.080Z,100306.38
2023-05-06T02:46:52.405Z,100309.26
2023-05-06T02:49:20.483Z,100311.83
2023-05-06T02:51:48.530Z,100317.03
2023-05-06T02:54:16.412Z,100314.81
2023-05-06T02:56:46.229Z,100314.65
2023-05-06T02:59:14.223Z,100315.59
2023-05-06T03:01:42.134Z,100318.49
2023-05-06T03:04:10.246Z,100320.21
2023-05-06T03:06:38.296Z,100320.33
2023-05-06T03:09:06.231Z,100320.52
2023-05-06T03:11:34.338Z,100319.72
2023-05-06T03:14:04.374Z,100321.47
2023-05-06T03:16:32.389Z,100320.69
2023-05-06T03:19:03.661Z,100321.13
2023-05-06T03:21:32.702Z,100319.67
2023-05-06T03:24:01.001Z,100322.16
2023-05-06T03:26:29.295Z,100320.56
2023-05-06T03:28:57.664Z,100321.70
2023-05-06T03:31:26.270Z,100322.98
2023-05-06T03:33:54.724Z,100320.84
2023-05-06T03:36:25.305Z,100321.52
2023-05-06T03:38:54.610Z,100320.73
2023-05-06T03:41:24.357Z,100321.15
2023-05-06T03:43:54.163Z,100321.02
2023-05-06T03:46:22.519Z,100324.73
2023-05-06T03:48:51.005Z,100324.95
2023-05-06T03:51:19.253Z,100321.38
2023-05-06T03:53:47.493Z,100316.71
2023-05-06T03:56:18.193Z,100316.98
2023-05-06T03:58:46.826Z,100318.30
2023-05-06T04:01:17.278Z,100317.36
2023-05-06T04:03:45.946Z,100319.56
2023-05-06T04:06:14.123Z,100323.80
2023-05-06T04:08:41.993Z,100325.27
2023-05-06T04:11:10.405Z,100324.06
2023-05-06T04:13:38.749Z,100323.13
2023-05-06T04:16:11.126Z,100326.55
2023-05-06T04:18:41.652Z,100326.61
2023-05-06T04:21:12.378Z,100324.64
2023-05-06T04:23:42.725Z,100324.81
2023-05-06T04:26:11.392Z,100326.21
2023-05-06T04:28:41.236Z,100323.59
2023-05-06T04:31:10.979Z,100325.42
2023-05-06T04:33:43.621Z,100330.41
2023-05-06T04:36:15.850Z,100331.19
2023-05-06T04:38:52.733Z,100331.12
2023-05-06T04:41:20.682Z,100335.61
2023-05-06T04:43:48.566Z,100336.85
2023-05-06T04:46:21.037Z,100336.90
2023-05-06T04:48:49.098Z,100338.86
2023-05-06T04:51:17.398Z,100336.25
2023-05-06T04:53:45.342Z,100337.16
2023-05-06T04:56:13.123Z,100337.20
2023-05-06T04:58:41.264Z,100335.75
2023-05-06T05:01:10.655Z,100336.14
2023-05-06T05:03:38.650Z,100339.05
2023-05-06T05:06:07.375Z,100339.14
2023-05-06T05:08:35.371Z,100335.42
2023-05-06T05:11:03.514Z,100334.78
2023-05-06T05:13:31.806Z,100335.91
2023-05-06T05:15:59.895Z,100337.52
2023-05-06T05:18:29.892Z,100338.09
2023-05-06T05:21:01.510Z,100338.77
2023-05-06T05:23:30.058Z,100339.02
2023-05-06T05:25:58.032Z,100338.25
2023-05-06T05:28:25.944Z,100335.77
2023-05-06T05:30:54.518Z,100340.05
2023-05-06T05:33:23.012Z,100338.05
2023-05-06T05:35:51.267Z,100339.40
2023-05-06T05:38:19.451Z,100338.25
2023-05-06T05:40:47.742Z,100336.17
2023-05-06T05:43:15.788Z,100338.19
2023-05-06T05:45:44.321Z,100334.04
2023-05-06T05:48:12.495Z,100331.81
2023-05-06T05:50:40.554Z,100329.83
2023-05-06T05:53:08.460Z,100333.36
2023-05-06T05:55:37.212Z,100329.51
2023-05-06T05:58:05.766Z,100331.30
2023-05-06T06:00:33.783Z,100334.14
2023-05-06T06:03:06.303Z,100332.88
2023-05-06T06:05:34.538Z,100332.95
2023-05-06T06:08:03.968Z,100330.86
2023-05-06T06:10:32.466Z,100330.81
2023-05-06T06:13:03.065Z,100328.23
2023-05-06T06:15:32.436Z,100327.03
2023-05-06T06:18:00.844Z,100323.86
2023-05-06T06:20:29.635Z,100322.09
2023-05-06T06:22:57.719Z,100319.54
2023-05-06T06:25:25.701Z,100318.31
2023-05-06T06:27:55.576Z,100320.20
2023-05-06T06:30:25.070Z,100320.14
2023-05-06T06:32:54.274Z,100324.58
2023-05-06T06:35:23.507Z,100328.65
2023-05-06T06:37:51.917Z,100329.98
2023-05-06T06:40:20.144Z,100326.71
2023-05-06T06:42:48.783Z,100325.05
2023-05-06T06:45:52.172Z,100327.69
2023-05-06T06:48:20.375Z,100326.17
2023-05-06T06:50:48.156Z,100325.63
2023-05-06T06:53:16.218Z,100327.19
2023-05-06T06:55:47.496Z,100329.02
2023-05-06T06:58:15.261Z,100322.48
2023-05-06T07:00:43.842Z,100322.41
2023-05-06T07:03:11.690Z,100323.64
2023-05-06T07:05:39.606Z,100327.23
2023-05-06T07:08:07.631Z,100327.17
2023-05-06T07:10:36.572Z,100328.73
2023-05-06T07:13:04.591Z,100329.84
2023-05-06T07:15:32.463Z,100329.05
2023-05-06T07:18:00.375Z,100328.16
2023-05-06T07:20:28.320Z,100326.89
2023-05-06T07:22:56.187Z,100328.96
2023-05-06T07:25:24.666Z,100330.66
2023-05-06T07:27:52.809Z,100327.11
2023-05-06T07:30:23.049Z,100329.48
2023-05-06T07:32:51.255Z,100331.90
2023-05-06T07:35:19.281Z,100334.00
2023-05-06T07:37:47.559Z,100330.56
2023-05-06T07:40:15.351Z,100328.17
2023-05-06T07:42:43.465Z,100329.79
2023-05-06T07:45:12.229Z,100327.45
2023-05-06T07:47:40.352Z,100325.59
2023-05-06T07:50:08.931Z,100323.67
2023-05-06T07:52:37.071Z,100318.19
2023-05-06T07:55:05.537Z,100319.55
2023-05-06T07:57:33.496Z,100317.27
2023-05-06T08:00:01.644Z,100317.44
2023-05-06T08:02:30.252Z,100315.83
2023-05-06T08:04:58.321Z,100318.27
2023-05-06T08:07:26.310Z,100322.58
2023-05-06T08:09:54.192Z,100324.98
2023-05-06T08:12:22.231Z,100327.14
2023-05-06T08:14:50.086Z,100326.45
2023-05-06T08:17:18.431Z,100326.31
2023-05-06T08:19:46.694Z,100328.33
2023-05-06T08:22:16.287Z,100325.40
2023-05-06T08:24:45.569Z,100329.41
2023-05-06T08:27:13.461Z,100333.08
2023-05-06T08:29:41.322Z,100331.77
2023-05-06T08:32:09.261Z,100331.73
2023-05-06T08:34:37.232Z,100330.27
2023-05-06T08:37:05.364Z,100330.90
2023-05-06T08:39:35.716Z,100333.20
2023-05-06T08:42:03.724Z,100334.82
2023-05-06T08:44:33.565Z,100335.35
2023-05-06T08:47:01.535Z,100333.86
2023-05-06T08:49:29.577Z,100332.74
2023-05-06T08:51:58.120Z,100332.44
2023-05-06T08:54:28.997Z,100333.80
2023-05-06T08:56:59.416Z,100333.94
2023-05-06T08:59:30.965Z,100335.00
2023-05-06T09:02:02.624Z,100337.60
2023-05-06T09:04:31.429Z,100336.69
2023-05-06T09:06:59.340Z,100339.48
2023-05-06T09:09:27.992Z,100337.90
2023-05-06T09:11:57.627Z,100340.60
2023-05-06T09:14:25.856Z,100337.49
2023-05-06T09:16:53.898Z,100339.88
2023-05-06T09:19:22.950Z,100338.66
2023-05-06T09:21:56.763Z,100327.84
2023-05-06T09:24:27.064Z,100332.02
2023-05-06T09:26:57.041Z,100329.58
2023-05-06T09:29:24.924Z,100332.83
2023-05-06T09:31:54.228Z,100335.04
2023-05-06T09:34:22.723Z,100334.92
2023-05-06T09:36:52.491Z,100328.65
2023-05-06T09:39:25.733Z,100328.30
2023-05-06T09:41:56.650Z,100329.73
2023-05-06T09:44:26.069Z,100328.08
2023-05-06T09:46:53.959Z,100322.02
2023-05-06T09:49:22.111Z,100321.30
2023-05-06T09:51:51.642Z,100317.27
2023-05-06T09:54:19.742Z,100317.12
2023-05-06T09:56:47.952Z,100318.98
2023-05-06T09:59:18.506Z,100316.33
2023-05-06T10:01:47.088Z,100314.11
2023-05-06T10:04:17.368Z,100314.19
2023-05-06T10:06:52.215Z,100309.64
2023-05-06T10:09:25.062Z,100305.05
2023-05-06T10:11:54.416Z,100299.86
2023-05-06T10:14:22.376Z,100298.19
2023-05-06T10:16:50.942Z,100293.30
2023-05-06T10:19:23.424Z,100289.12
2023-05-06T10:22:11.527Z,100284.26
2023-05-06T10:24:54.195Z,100280.36
2023-05-06T10:27:28.327Z,100278.08
2023-05-06T10:30:00.022Z,100276.48
2023-05-06T10:32:32.091Z,100269.26
2023-05-06T10:35:10.360Z,100265.02
2023-05-06T10:37:40.670Z,100263.55
2023-05-06T10:40:10.022Z,100264.40
2023-05-06T10:42:38.017Z,100260.92
2023-05-06T10:45:06.649Z,100260.42
2023-05-06T10:47:56.902Z,100260.48
2023-05-06T10:50:26.824Z,100255.11
2023-05-06T10:52:56.769Z,100249.88
2023-05-06T10:55:36.028Z,100246.09
2023-05-06T10:58:14.670Z,100244.01
2023-05-06T11:00:53.832Z,100243.45
2023-05-06T11:03:23.991Z,100236.46
2023-05-06T11:05:52.725Z,100237.80
2023-05-06T11:08:27.210Z,100239.40
2023-05-06T11:10:55.670Z,100231.70
2023-05-06T11:13:29.063Z,100229.89
2023-05-06T11:16:02.507Z,100232.00
2023-05-06T11:18:36.926Z,100226.20
2023-05-06T11:21:08.310Z,100226.25
2023-05-06T11:23:42.078Z,100224.78
2023-05-06T11:26:11.105Z,100224.48
2023-05-06T11:28:40.132Z,100227.42
2023-05-06T11:31:12.161Z,100219.25
2023-05-06T11:33:52.404Z,100218.40
2023-05-06T11:36:21.154Z,100216.26
2023-05-06T11:38:53.036Z,100217.48
2023-05-06T11:41:22.976Z,100216.79
2023-05-06T11:43:53.468Z,100214.75
2023-05-06T11:46:23.189Z,100214.20
2023-05-06T11:48:54.148Z,100214.84
2023-05-06T11:51:23.164Z,100213.50
2023-05-06T11:53:52.105Z,100212.72
2023-05-06T11:56:20.106Z,100209.29
2023-05-06T11:58:48.129Z,100210.77
2023-05-06T12:01:15.989Z,100212.30
2023-05-06T12:03:44.004Z,100211.45
2023-05-06T12:06:13.183Z,100213.23
2023-05-06T12:08:41.508Z,100214.02
2023-05-06T12:11:11.175Z,100212.76
2023-05-06T12:13:40.726Z,100209.80
2023-05-06T12:16:11.947Z,100208.17
2023-05-06T12:18:40.560Z,100205.91
2023-05-06T12:21:08.504Z,100200.39
2023-05-06T12:23:36.314Z,100196.89
2023-05-06T12:26:06.526Z,100195.74
2023-05-06T12:28:36.269Z,100198.96
2023-05-06T12:31:24.192Z,100196.63
2023-05-06T12:33:52.716Z,100191.16
2023-05-06T12:36:21.600Z,100186.77
2023-05-06T12:38:54.276Z,100188.52
2023-05-06T12:41:23.290Z,100187.37
2023-05-06T12:43:55.387Z,100184.87
2023-05-06T12:46:23.354Z,100185.30
2023-05-06T12:48:58.163Z,100181.30
2023-05-06T12:51:27.080Z,100176.61
2023-05-06T12:53:55.017Z,100176.81
2023-05-06T12:56:23.394Z,100178.41
2023-05-06T12:58:58.281Z,100174.23
2023-05-06T13:01:26.301Z,100176.80
2023-05-06T13:03:58.467Z,100174.73
2023-05-06T13:06:26.395Z,100173.45
2023-05-06T13:08:54.219Z,100175.92
2023-05-06T13:11:22.276Z,100174.39
2023-05-06T13:13:50.208Z,100174.58
2023-05-06T13:16:18.306Z,100170.06
2023-05-06T13:18:46.288Z,100167.52
2023-05-06T13:21:14.246Z,100161.44
2023-05-06T13:23:46.995Z,100163.86
2023-05-06T13:26:15.643Z,100165.61
2023-05-06T13:28:43.598Z,100161.48
2023-05-06T13:31:11.598Z,100159.84
2023-05-06T13:33:39.605Z,100156.84
2023-05-06T13:36:07.713Z,100151.45
2023-05-06T13:38:35.752Z,100154.34
2023-05-06T13:41:03.564Z,100151.45
2023-05-06T13:43:31.350Z,100149.38
2023-05-06T13:45:59.135Z,100141.12
2023-05-06T13:48:26.916Z,100139.52
2023-05-06T13:50:54.847Z,100133.95
2023-05-06T13:53:22.831Z,100132.48
2023-05-06T13:55:50.663Z,100127.47
2023-05-06T13:58:18.677Z,100133.77
2023-05-06T14:00:48.553Z,100130.37
2023-05-06T14:03:16.453Z,100130.29
2023-05-06T14:05:44.535Z,100123.11
2023-05-06T14:08:12.356Z,100118.94
2023-05-06T14:10:40.210Z,100120.66
2023-05-06T14:13:08.193Z,100119.36
2023-05-06T14:15:36.098Z,100118.16
2023-05-06T14:18:04.527Z,100114.13
2023-05-06T14:20:32.404Z,100111.67
2023-05-06T14:23:00.368Z,100106.95
2023-05-06T14:25:28.255Z,100106.08
2023-05-06T14:27:56.278Z,100105.70
2023-05-06T14:30:24.483Z,100101.63
2023-05-06T14:32:52.710Z,100103.44
2023-05-06T14:35:20.882Z,100101.16
2023-05-06T14:37:48.961Z,100103.98
2023-05-06T14:40:17.276Z,100107.45
2023-05-06T14:42:45.877Z,100106.55
2023-05-06T14:45:15.693Z,100106.98
2023-05-06T14:47:43.823Z,100103.52
2023-05-06T14:50:13.019Z,100102.87
2023-05-06T14:52:41.868Z,100100.56
2023-05-06T14:55:11.185Z,100102.02
2023-05-06T14:57:39.495Z,100099.39
2023-05-06T15:00:14.666Z,100102.18
2023-05-06T15:02:42.886Z,100102.56
2023-05-06T15:05:12.095Z,100100.83
2023-05-06T15:07:40.497Z,100102.36
2023-05-06T15:10:08.810Z,100100.48
2023-05-06T15:12:39.486Z,100095.12
2023-05-06T15:15:08.268Z,100094.45
2023-05-06T15:17:36.370Z,100094.83
2023-05-06T15:20:04.666Z,100091.14
2023-05-06T15:22:32.644Z,100091.87
2023-05-06T15:25:01.644Z,100098.89
2023-05-06T15:27:29.408Z,100098.89
2023-05-06T15:29:57.234Z,100098.31
2023-05-06T15:32:25.041Z,100100.40
2023-05-06T15:34:53.086Z,100098.13
2023-05-06T15:37:22.128Z,100096.63
2023-05-06T15:39:49.946Z,100092.10
2023-05-06T15:42:17.906Z,100090.25
2023-05-06T15:44:49.266Z,100088.88
2023-05-06T15:47:17.945Z,100085.67
2023-05-06T15:49:52.868Z,100086.13
2023-05-06T15:52:23.200Z,100083.46
2023-05-06T15:54:51.549Z,100082.31
2023-05-06T15:57:19.617Z,100085.77
2023-05-06T15:59:47.474Z,100084.05
2023-05-06T16:02:26.702Z,100082.25
2023-05-06T16:04:55.088Z,100077.81
2023-05-06T16:07:23.285Z,100076.42
2023-05-06T16:09:51.271Z,100076.80
2023-05-06T16:12:19.216Z,100075.55
2023-05-06T16:14:47.122Z,100071.42
2023-05-06T16:17:15.848Z,100068.76
2023-05-06T16:19:43.730Z,100064.91
2023-05-06T16:22:11.546Z,100063.84
2023-05-06T16:24:39.320Z,100067.42
2023-05-06T16:27:07.263Z,100075.39
2023-05-06T16:29:35.156Z,100075.35
2023-05-06T16:32:03.454Z,100079.35
2023-05-06T16:34:31.289Z,100079.27
2023-05-06T16:37:00.467Z,100079.45
2023-05-06T16:39:28.603Z,100077.70
2023-05-06T16:41:56.436Z,100076.23
2023-05-06T16:44:24.322Z,100076.20
2023-05-06T16:46:52.171Z,100077.54
2023-05-06T16:49:21.156Z,100073.96
2023-05-06T16:51:48.957Z,100072.11
2023-05-06T16:54:16.917Z,100074.20
2023-05-06T16:56:52.228Z,100076.11
2023-05-06T16:59:22.167Z,100076.76
2023-05-06T17:01:50.731Z,100076.27
2023-05-06T17:04:18.668Z,100076.36
2023-05-06T17:06:46.496Z,100076.54
2023-05-06T17:09:14.491Z,100079.87
2023-05-06T17:11:42.658Z,100080.52
2023-05-06T17:14:11.234Z,100081.34
2023-05-06T17:16:39.353Z,100078.02
2023-05-06T17:19:07.354Z,100083.08
2023-05-06T17:21:35.318Z,100082.45
2023-05-06T17:24:03.572Z,100083.40
2023-05-06T17:26:32.660Z,100089.08
2023-05-06T17:29:01.169Z,100087.45
2023-05-06T17:31:29.130Z,100090.66
2023-05-06T17:33:57.598Z,100089.99
2023-05-06T17:36:26.033Z,100090.89
2023-05-06T17:39:05.087Z,100093.10
2023-05-06T17:41:33.655Z,100094.66
2023-05-06T17:44:01.639Z,100095.83
2023-05-06T17:46:29.773Z,100098.38
2023-05-06T17:48:57.803Z,100101.66
2023-05-06T17:51:26.787Z,100102.51
2023-05-06T17:53:54.692Z,100102.55
2023-05-06T17:56:22.652Z,100102.09
2023-05-06T17:58:50.634Z,100108.02
2023-05-06T18:01:18.710Z,100111.47
2023-05-06T18:03:46.842Z,100116.23
2023-05-06T18:06:14.837Z,100121.27
2023-05-06T18:08:44.380Z,100127.33
2023-05-06T18:11:12.335Z,100129.98
2023-05-06T18:13:40.394Z,100131.73
2023-05-06T18:16:08.521Z,100135.29
2023-05-06T18:18:36.412Z,100136.80
2023-05-06T18:21:04.243Z,100144.04
2023-05-06T18:23:32.518Z,100145.73
2023-05-06T18:26:03.374Z,100141.09
2023-05-06T18:28:31.775Z,100142.45
2023-05-06T18:30:59.860Z,100142.69
2023-05-06T18:33:28.066Z,100142.89
2023-05-06T18:35:56.804Z,100143.80
2023-05-06T18:38:26.442Z,100142.20
2023-05-06T18:40:54.443Z,100143.70
2023-05-06T18:43:22.397Z,100142.39
2023-05-06T18:45:52.168Z,100147.57
2023-05-06T18:48:20.258Z,100150.77
2023-05-06T18:50:49.277Z,100150.30
2023-05-06T18:53:17.162Z,100153.00
2023-05-06T18:55:45.181Z,100154.70
2023-05-06T18:58:12.926Z,100158.16
2023-05-06T19:00:40.999Z,100159.77
2023-05-06T19:03:09.396Z,100161.06
2023-05-06T19:05:38.052Z,100165.10
2023-05-06T19:08:07.406Z,100163.52
2023-05-06T19:10:35.375Z,100164.35
2023-05-06T19:13:04.961Z,100162.85
2023-05-06T19:15:33.097Z,100163.73
2023-05-06T19:18:01.983Z,100162.73
2023-05-06T19:20:30.073Z,100165.81
2023-05-06T19:22:57.952Z,100168.30
2023-05-06T19:25:27.105Z,100172.91
2023-05-06T19:27:55.098Z,100173.05
2023-05-06T19:30:22.992Z,100176.09
2023-05-06T19:32:51.028Z,100180.73
2023-05-06T19:35:19.230Z,100180.05
2023-05-06T19:37:47.206Z,100180.05
2023-05-06T19:40:15.130Z,100178.46
2023-05-06T19:42:43.078Z,100178.18
2023-05-06T19:45:15.899Z,100178.31
2023-05-06T19:47:44.648Z,100176.84
2023-05-06T19:50:13.077Z,100182.05
2023-05-06T19:52:41.325Z,100184.19
2023-05-06T19:55:09.948Z,100179.65
2023-05-06T19:57:38.367Z,100179.34
2023-05-06T20:00:10.252Z,100179.27
2023-05-06T20:02:38.847Z,100177.45
2023-05-06T20:05:15.579Z,100176.19
2023-05-06T20:07:47.066Z,100172.81
2023-05-06T20:10:15.050Z,100169.59
2023-05-06T20:12:43.483Z,100166.85
2023-05-06T20:15:11.863Z,100163.67
2023-05-06T20:17:40.094Z,100164.60
2023-05-06T20:20:13.728Z,100164.46
2023-05-06T20:22:44.055Z,100167.88
2023-05-06T20:25:18.832Z,100163.83
2023-05-06T20:27:48.849Z,100166.16
2023-05-06T20:30:19.768Z,100164.41
2023-05-06T20:32:49.110Z,100168.17
2023-05-06T20:35:19.251Z,100192.17
2023-05-06T20:37:47.660Z,100205.15
2023-05-06T20:40:15.836Z,100200.24
2023-05-06T20:42:43.858Z,100188.66
2023-05-06T20:45:12.394Z,100201.35
2023-05-06T20:47:41.410Z,100207.73
2023-05-06T20:50:16.522Z,100203.61
2023-05-06T20:52:46.064Z,100204.41
2023-05-06T20:55:16.549Z,100204.48
2023-05-06T20:57:44.909Z,100204.91
2023-05-06T21:00:13.347Z,100213.09
2023-05-06T21:02:42.281Z,100211.97
2023-05-06T21:05:11.321Z,100214.02
2023-05-06T21:07:39.627Z,100215.41
2023-05-06T21:10:09.904Z,100219.80
2023-05-06T21:12:38.163Z,100215.11
2023-05-06T21:15:06.751Z,100215.98
2023-05-06T21:17:35.038Z,100218.52
2023-05-06T21:20:04.278Z,100219.02
2023-05-06T21:22:34.308Z,100220.13
2023-05-06T21:25:02.266Z,100222.92
2023-05-06T21:27:30.363Z,100224.19
2023-05-06T21:29:58.399Z,100228.67
2023-05-06T21:32:29.675Z,100232.52
2023-05-06T21:34:57.584Z,100230.69
2023-05-06T21:37:25.637Z,100231.55
2023-05-06T21:39:54.072Z,100229.95
2023-05-06T21:42:22.010Z,100227.64
2023-05-06T21:44:50.062Z,100225.86
2023-05-06T21:47:18.102Z,100228.20
2023-05-06T21:49:46.206Z,100234.33
2023-05-06T21:52:14.090Z,100233.33
2023-05-06T21:54:42.154Z,100231.52
2023-05-06T21:57:10.097Z,100226.46
2023-05-06T21:59:38.386Z,100222.72
2023-05-06T22:02:06.579Z,100220.77
2023-05-06T22:04:34.650Z,100215.77
2023-05-06T22:07:02.652Z,100213.66
2023-05-06T22:09:32.698Z,100218.05
2023-05-06T22:12:06.736Z,100217.71
2023-05-06T22:14:41.066Z,100218.41
2023-05-06T22:17:10.566Z,100218.88
2023-05-06T22:19:40.849Z,100215.27
2023-05-06T22:22:12.038Z,100215.65
2023-05-06T22:24:41.173Z,100215.29
2023-05-06T22:27:09.106Z,100209.23
2023-05-06T22:29:37.080Z,100205.80
2023-05-06T22:32:06.369Z,100204.98
2023-05-06T22:34:34.637Z,100204.88
2023-05-06T22:37:09.832Z,100202.73
2023-05-06T22:39:37.886Z,100200.44
2023-05-06T22:42:06.046Z,100193.70
2023-05-06T22:44:34.229Z,100194.94
2023-05-06T22:47:02.318Z,100195.01
2023-05-06T22:49:30.327Z,100191.34
2023-05-06T22:51:58.339Z,100191.23
2023-05-06T22:54:26.342Z,100195.87
2023-05-06T22:56:54.402Z,100195.09
2023-05-06T22:59:22.482Z,100190.16
2023-05-06T23:01:50.514Z,100184.83
2023-05-06T23:04:18.702Z,100185.94
2023-05-06T23:06:46.794Z,100189.95
2023-05-06T23:09:14.772Z,100195.23
2023-05-06T23:11:42.720Z,100193.29
2023-05-06T23:14:11.078Z,100189.22
2023-05-06T23:16:39.052Z,100191.36
2023-05-06T23:19:07.206Z,100191.16
2023-05-06T23:21:35.327Z,100194.48
2023-05-06T23:24:03.473Z,100195.69
2023-05-06T23:26:31.398Z,100197.64
2023-05-06T23:28:59.459Z,100206.78
2023-05-06T23:31:27.622Z,100209.01
2023-05-06T23:33:55.819Z,100211.67
2023-05-06T23:36:23.764Z,100214.23
2023-05-06T23:38:51.750Z,100213.22
2023-05-06T23:41:19.770Z,100216.34
2023-05-06T23:43:47.750Z,100215.45
2023-05-06T23:46:15.909Z,100216.15
2023-05-06T23:48:43.891Z,100213.25
2023-05-06T23:51:11.787Z,100209.67
2023-05-06T23:53:40.279Z,100211.46
2023-05-06T23:56:08.111Z,100215.73
2023-05-06T23:58:36.247Z,100213.98
